createdAt,value
2022-07-29T00:00:21.758Z,2.92
2022-07-29T00:00:46.831Z,2.90
2022-07-29T00:01:08.728Z,2.97
2022-07-29T00:01:41.969Z,2.90
2022-07-29T00:02:03.844Z,2.90
2022-07-29T00:02:25.903Z,2.90
2022-07-29T00:02:47.981Z,2.72
2022-07-29T00:03:09.836Z,2.78
2022-07-29T00:03:31.730Z,2.80
2022-07-29T00:03:53.775Z,2.75
2022-07-29T00:04:15.911Z,2.70
2022-07-29T00:04:38.644Z,2.70
2022-07-29T00:05:00.473Z,2.67
2022-07-29T00:05:22.234Z,2.60
2022-07-29T00:05:45.536Z,2.78
2022-07-29T00:06:07.721Z,2.83
2022-07-29T00:06:29.545Z,2.58
2022-07-29T00:06:52.216Z,2.58
2022-07-29T00:07:14.050Z,2.63
2022-07-29T00:07:35.800Z,2.70
2022-07-29T00:07:57.714Z,2.83
2022-07-29T00:08:19.964Z,2.92
2022-07-29T00:08:41.899Z,2.58
2022-07-29T00:09:03.993Z,2.65
2022-07-29T00:09:25.806Z,2.97
2022-07-29T00:09:52.033Z,2.80
2022-07-29T00:10:14.427Z,2.90
2022-07-29T00:10:36.549Z,2.97
2022-07-29T00:10:58.325Z,2.50
2022-07-29T00:11:20.382Z,2.83
2022-07-29T00:11:42.933Z,2.72
2022-07-29T00:12:05.299Z,2.80
2022-07-29T00:12:27.177Z,2.90
2022-07-29T00:12:48.963Z,3.07
2022-07-29T00:13:11.157Z,2.60
2022-07-29T00:13:34.230Z,3.00
2022-07-29T00:13:56.251Z,3.08
2022-07-29T00:14:18.366Z,2.97
2022-07-29T00:14:40.494Z,2.95
2022-07-29T00:15:02.671Z,2.63
2022-07-29T00:15:24.431Z,2.83
2022-07-29T00:15:46.407Z,2.97
2022-07-29T00:16:08.252Z,2.83
2022-07-29T00:16:30.279Z,3.00
2022-07-29T00:16:52.256Z,2.95
2022-07-29T00:17:14.038Z,2.90
2022-07-29T00:17:42.220Z,2.33
2022-07-29T00:18:05.158Z,2.80
2022-07-29T00:18:27.041Z,2.85
2022-07-29T00:18:52.218Z,3.00
2022-07-29T00:19:14.028Z,2.90
2022-07-29T00:19:35.987Z,3.10
2022-07-29T00:19:58.124Z,2.67
2022-07-29T00:20:20.097Z,2.60
2022-07-29T00:20:43.381Z,2.83
2022-07-29T00:21:05.386Z,2.72
2022-07-29T00:21:27.477Z,2.90
2022-07-29T00:21:49.267Z,3.00
2022-07-29T00:22:11.271Z,2.50
2022-07-29T00:22:33.107Z,2.78
2022-07-29T00:22:55.021Z,2.90
2022-07-29T00:23:19.184Z,2.97
2022-07-29T00:23:40.963Z,3.10
2022-07-29T00:24:02.761Z,2.70
2022-07-29T00:24:25.212Z,3.13
2022-07-29T00:24:49.075Z,2.90
2022-07-29T00:25:10.930Z,2.90
2022-07-29T00:25:34.272Z,2.95
2022-07-29T00:25:56.017Z,3.00
2022-07-29T00:26:17.805Z,3.00
2022-07-29T00:26:39.572Z,3.15
2022-07-29T00:27:01.395Z,3.00
2022-07-29T00:27:23.207Z,2.73
2022-07-29T00:27:46.842Z,2.72
2022-07-29T00:28:09.667Z,3.25
2022-07-29T00:28:31.479Z,3.00
2022-07-29T00:29:06.327Z,3.03
2022-07-29T00:29:35.489Z,3.60
2022-07-29T00:29:57.497Z,3.38
2022-07-29T00:30:19.317Z,3.10
2022-07-29T00:30:43.880Z,2.90
2022-07-29T00:31:06.001Z,3.20
2022-07-29T00:31:28.091Z,3.15
2022-07-29T00:31:50.099Z,3.30
2022-07-29T00:32:12.430Z,3.03
2022-07-29T00:32:34.900Z,3.17
2022-07-29T00:32:57.138Z,3.40
2022-07-29T00:33:18.958Z,2.90
2022-07-29T00:33:40.763Z,3.15
2022-07-29T00:34:03.783Z,3.22
2022-07-29T00:34:44.013Z,3.22
2022-07-29T00:35:25.626Z,3.45
2022-07-29T00:35:47.436Z,2.88
2022-07-29T00:36:09.205Z,3.25
2022-07-29T00:36:30.973Z,3.00
2022-07-29T00:36:52.791Z,3.20
2022-07-29T00:37:14.546Z,3.20
2022-07-29T00:37:36.322Z,3.30
2022-07-29T00:37:58.135Z,3.25
2022-07-29T00:38:21.552Z,3.50
2022-07-29T00:38:46.117Z,3.40
2022-07-29T00:39:07.918Z,3.42
2022-07-29T00:39:30.660Z,3.30
2022-07-29T00:39:52.552Z,3.10
2022-07-29T00:40:15.555Z,3.10
2022-07-29T00:40:37.337Z,3.03
2022-07-29T00:41:05.181Z,3.30
2022-07-29T00:41:26.932Z,3.17
2022-07-29T00:41:51.044Z,3.25
2022-07-29T00:42:12.786Z,3.20
2022-07-29T00:42:47.853Z,3.20
2022-07-29T00:43:10.074Z,2.95
2022-07-29T00:43:32.094Z,3.00
2022-07-29T00:43:54.029Z,3.00
2022-07-29T00:44:16.135Z,3.30
2022-07-29T00:44:41.410Z,2.95
2022-07-29T00:45:03.386Z,3.00
2022-07-29T00:45:25.267Z,3.45
2022-07-29T00:45:47.066Z,2.65
2022-07-29T00:46:09.094Z,2.72
2022-07-29T00:46:30.940Z,3.28
2022-07-29T00:46:52.959Z,3.25
2022-07-29T00:47:14.996Z,3.38
2022-07-29T00:47:36.990Z,3.40
2022-07-29T00:47:59.144Z,3.40
2022-07-29T00:48:20.954Z,3.30
2022-07-29T00:48:42.837Z,3.40
2022-07-29T00:49:04.801Z,3.45
2022-07-29T00:49:26.789Z,3.20
2022-07-29T00:49:49.190Z,3.47
2022-07-29T00:50:12.995Z,3.10
2022-07-29T00:50:34.901Z,3.30
2022-07-29T00:50:59.235Z,3.50
2022-07-29T00:51:21.109Z,3.42
2022-07-29T00:51:43.387Z,3.55
2022-07-29T00:52:17.189Z,3.40
2022-07-29T00:52:40.935Z,3.90
2022-07-29T00:53:05.293Z,3.33
2022-07-29T00:53:28.220Z,3.17
2022-07-29T00:53:51.926Z,3.10
2022-07-29T00:54:14.081Z,3.55
2022-07-29T00:54:51.023Z,3.67
2022-07-29T00:55:15.083Z,3.28
2022-07-29T00:55:39.853Z,3.15
2022-07-29T00:56:02.006Z,3.33
2022-07-29T00:56:24.053Z,3.42
2022-07-29T00:56:46.065Z,3.65
2022-07-29T00:57:09.288Z,3.30
2022-07-29T00:57:31.369Z,3.25
2022-07-29T00:57:53.958Z,3.13
2022-07-29T00:58:16.019Z,3.50
2022-07-29T00:58:38.395Z,3.70
2022-07-29T00:59:01.331Z,3.28
2022-07-29T00:59:23.888Z,3.25
2022-07-29T00:59:45.675Z,3.60
2022-07-29T01:00:10.735Z,3.67
2022-07-29T01:00:32.896Z,3.28
2022-07-29T01:00:54.878Z,3.25
2022-07-29T01:01:16.780Z,3.30
2022-07-29T01:01:38.770Z,3.28
2022-07-29T01:02:00.956Z,3.42
2022-07-29T01:02:23.119Z,3.50
2022-07-29T01:02:46.000Z,3.55
2022-07-29T01:03:08.714Z,3.65
2022-07-29T01:03:30.519Z,3.83
2022-07-29T01:03:52.397Z,3.45
2022-07-29T01:04:14.494Z,3.50
2022-07-29T01:04:38.437Z,3.50
2022-07-29T01:05:01.409Z,4.03
2022-07-29T01:05:50.492Z,3.83
2022-07-29T01:06:10.681Z,3.63
2022-07-29T01:06:33.079Z,3.50
2022-07-29T01:06:56.045Z,3.50
2022-07-29T01:07:18.422Z,3.30
2022-07-29T01:07:41.208Z,3.30
2022-07-29T01:08:03.533Z,3.65
2022-07-29T01:08:25.505Z,3.70
2022-07-29T01:08:49.283Z,3.65
2022-07-29T01:09:14.808Z,3.50
2022-07-29T01:09:46.069Z,3.80
2022-07-29T01:10:11.377Z,3.90
2022-07-29T01:10:34.710Z,3.75
2022-07-29T01:10:56.640Z,3.50
2022-07-29T01:11:19.298Z,3.42
2022-07-29T01:11:41.496Z,3.88
2022-07-29T01:12:05.247Z,3.60
2022-07-29T01:12:36.501Z,3.67
2022-07-29T01:13:00.086Z,3.80
2022-07-29T01:13:22.515Z,3.63
2022-07-29T01:13:45.369Z,3.60
2022-07-29T01:14:08.863Z,3.42
2022-07-29T01:14:31.963Z,3.63
2022-07-29T01:15:12.721Z,3.80
2022-07-29T01:15:41.935Z,3.55
2022-07-29T01:16:28.404Z,3.45
2022-07-29T01:17:03.417Z,3.67
2022-07-29T01:17:56.443Z,3.58
2022-07-29T01:18:22.073Z,3.90
2022-07-29T01:18:49.709Z,3.90
2022-07-29T01:19:33.822Z,3.78
2022-07-29T01:20:07.024Z,3.70
2022-07-29T01:20:59.499Z,3.70
2022-07-29T01:21:33.247Z,3.58
2022-07-29T01:22:00.524Z,3.58
2022-07-29T01:23:00.542Z,3.40
2022-07-29T01:23:25.111Z,3.60
2022-07-29T01:24:18.849Z,3.80
2022-07-29T01:25:08.373Z,3.50
2022-07-29T01:25:56.161Z,3.85
2022-07-29T01:26:27.759Z,3.40
2022-07-29T01:26:59.203Z,3.67
2022-07-29T01:27:20.967Z,4.05
2022-07-29T01:27:59.481Z,3.90
2022-07-29T01:28:47.795Z,3.80
2022-07-29T01:29:17.058Z,3.78
2022-07-29T01:29:44.891Z,4.05
2022-07-29T01:30:09.758Z,3.58
2022-07-29T01:30:33.543Z,4.07
2022-07-29T01:30:57.444Z,4.03
2022-07-29T01:31:26.590Z,3.70
2022-07-29T01:32:02.934Z,3.92
2022-07-29T01:32:29.552Z,4.13
2022-07-29T01:32:57.297Z,3.80
2022-07-29T01:33:40.457Z,3.80
2022-07-29T01:34:08.059Z,3.95
2022-07-29T01:35:04.020Z,3.80
2022-07-29T01:35:37.282Z,3.53
2022-07-29T01:36:02.451Z,3.53
2022-07-29T01:36:36.372Z,3.95
2022-07-29T01:37:28.035Z,3.90
2022-07-29T01:38:24.162Z,3.72
2022-07-29T01:39:09.500Z,4.18
2022-07-29T01:39:37.396Z,3.63
2022-07-29T01:40:01.877Z,3.72
2022-07-29T01:40:31.872Z,3.72
2022-07-29T01:41:33.652Z,3.75
2022-07-29T01:42:22.224Z,4.10
2022-07-29T01:42:47.121Z,3.65
2022-07-29T01:43:15.511Z,3.80
2022-07-29T01:43:51.522Z,3.60
2022-07-29T01:44:19.744Z,3.55
2022-07-29T01:44:55.212Z,4.10
2022-07-29T01:45:24.270Z,4.05
2022-07-29T01:46:03.091Z,3.70
2022-07-29T01:46:37.937Z,3.42
2022-07-29T01:47:05.966Z,3.70
2022-07-29T01:47:39.991Z,3.88
2022-07-29T01:48:07.931Z,3.80
2022-07-29T01:48:39.081Z,3.75
2022-07-29T01:49:08.622Z,3.42
2022-07-29T01:49:36.623Z,3.67
2022-07-29T01:50:16.239Z,3.80
2022-07-29T01:51:30.653Z,4.03
2022-07-29T01:52:01.594Z,3.80
2022-07-29T01:52:53.640Z,3.58
2022-07-29T01:53:24.603Z,3.80
2022-07-29T01:54:00.714Z,3.72
2022-07-29T01:54:38.325Z,3.67
2022-07-29T01:55:14.644Z,3.60
2022-07-29T01:55:40.093Z,3.72
2022-07-29T01:56:03.989Z,4.10
2022-07-29T01:56:30.706Z,4.20
2022-07-29T01:56:56.672Z,4.05
2022-07-29T01:57:22.206Z,3.90
2022-07-29T01:57:48.813Z,3.63
2022-07-29T01:58:13.233Z,3.72
2022-07-29T01:58:37.907Z,4.00
2022-07-29T01:59:00.841Z,3.67
2022-07-29T01:59:26.958Z,3.97
2022-07-29T01:59:51.246Z,3.90
2022-07-29T02:00:15.674Z,3.58
2022-07-29T02:00:38.583Z,3.40
2022-07-29T02:01:01.865Z,3.88
2022-07-29T02:01:28.921Z,3.58
2022-07-29T02:01:54.818Z,3.50
2022-07-29T02:02:24.351Z,3.50
2022-07-29T02:02:48.871Z,3.70
2022-07-29T02:03:13.488Z,3.90
2022-07-29T02:03:37.430Z,4.25
2022-07-29T02:04:03.817Z,3.75
2022-07-29T02:04:29.145Z,3.70
2022-07-29T02:04:54.118Z,4.00
2022-07-29T02:05:19.670Z,3.50
2022-07-29T02:05:45.130Z,3.80
2022-07-29T02:06:09.950Z,3.80
2022-07-29T02:06:34.285Z,3.58
2022-07-29T02:07:01.605Z,3.70
2022-07-29T02:07:43.142Z,3.75
2022-07-29T02:08:19.635Z,4.05
2022-07-29T02:08:42.716Z,3.92
2022-07-29T02:09:08.554Z,4.00
2022-07-29T02:09:36.487Z,3.83
2022-07-29T02:10:03.487Z,3.70
2022-07-29T02:13:42.630Z,3.95
2022-07-29T02:14:06.089Z,4.03
2022-07-29T02:14:32.350Z,3.97
2022-07-29T02:14:55.635Z,3.90
2022-07-29T02:15:53.175Z,3.92
2022-07-29T02:16:55.084Z,4.00
2022-07-29T02:17:24.868Z,3.90
2022-07-29T02:17:59.484Z,3.60
2022-07-29T02:18:52.126Z,3.80
2022-07-29T02:19:15.778Z,3.97
2022-07-29T02:19:47.263Z,4.07
2022-07-29T02:20:21.240Z,3.83
2022-07-29T02:21:15.727Z,3.47
2022-07-29T02:21:38.853Z,3.97
2022-07-29T02:22:25.328Z,4.03
2022-07-29T02:22:49.883Z,4.30
2022-07-29T02:23:13.707Z,4.22
2022-07-29T02:23:51.201Z,4.03
2022-07-29T02:24:15.759Z,3.33
2022-07-29T02:24:39.461Z,3.85
2022-07-29T02:25:03.761Z,3.70
2022-07-29T02:25:42.908Z,4.00
2022-07-29T02:26:05.335Z,3.80
2022-07-29T02:26:27.924Z,3.95
2022-07-29T02:26:52.185Z,4.10
2022-07-29T02:27:15.097Z,3.90
2022-07-29T02:27:38.957Z,3.92
2022-07-29T02:28:02.513Z,3.70
2022-07-29T02:28:27.787Z,3.55
2022-07-29T02:28:52.599Z,3.70
2022-07-29T02:29:54.428Z,3.70
2022-07-29T02:30:16.874Z,3.45
2022-07-29T02:30:44.234Z,3.60
2022-07-29T02:31:07.683Z,3.90
2022-07-29T02:31:33.863Z,3.70
2022-07-29T02:31:58.208Z,3.53
2022-07-29T02:32:22.223Z,3.33
2022-07-29T02:32:47.423Z,3.40
2022-07-29T02:33:11.277Z,3.90
2022-07-29T02:33:36.913Z,3.20
2022-07-29T02:33:59.521Z,3.45
2022-07-29T02:34:22.157Z,4.03
2022-07-29T02:34:54.456Z,3.83
2022-07-29T02:35:17.899Z,3.65
2022-07-29T02:35:41.673Z,3.83
2022-07-29T02:36:04.278Z,3.83
2022-07-29T02:36:28.327Z,3.60
2022-07-29T02:36:51.383Z,3.90
2022-07-29T02:37:14.443Z,3.95
2022-07-29T02:37:38.160Z,3.58
2022-07-29T02:38:18.719Z,3.65
2022-07-29T02:38:52.654Z,3.47
2022-07-29T02:39:16.356Z,3.80
2022-07-29T02:39:39.943Z,4.30
2022-07-29T02:40:10.848Z,4.20
2022-07-29T02:40:34.529Z,3.80
2022-07-29T02:40:57.805Z,3.70
2022-07-29T02:41:41.264Z,4.00
2022-07-29T02:42:06.723Z,3.67
2022-07-29T02:42:29.562Z,4.10
2022-07-29T02:42:51.863Z,4.45
2022-07-29T02:43:14.407Z,3.97
2022-07-29T02:43:37.659Z,4.10
2022-07-29T02:44:08.320Z,4.22
2022-07-29T02:44:34.493Z,3.90
2022-07-29T02:44:57.370Z,3.90
2022-07-29T02:45:19.262Z,3.75
2022-07-29T02:45:41.145Z,3.78
2022-07-29T02:46:12.707Z,3.92
2022-07-29T02:47:07.491Z,3.75
2022-07-29T02:47:41.562Z,4.18
2022-07-29T02:48:09.803Z,4.43
2022-07-29T02:48:48.949Z,4.40
2022-07-29T02:49:32.795Z,4.25
2022-07-29T02:50:12.886Z,4.30
2022-07-29T02:50:39.086Z,4.25
2022-07-29T02:51:13.118Z,4.28
2022-07-29T02:52:36.057Z,4.18
2022-07-29T02:53:19.820Z,4.00
2022-07-29T02:53:44.821Z,4.65
2022-07-29T02:54:10.061Z,4.15
2022-07-29T02:54:48.242Z,4.28
2022-07-29T02:55:34.573Z,4.90
2022-07-29T02:56:13.935Z,4.20
2022-07-29T03:23:55.276Z,4.13
2022-07-29T03:24:40.465Z,4.25
2022-07-29T03:25:14.737Z,4.07
2022-07-29T03:26:05.991Z,4.10
2022-07-29T03:26:54.751Z,4.20
2022-07-29T03:27:27.042Z,3.90
2022-07-29T03:27:49.588Z,4.20
2022-07-29T03:28:14.084Z,4.20
2022-07-29T03:28:38.393Z,3.85
2022-07-29T03:29:01.441Z,4.20
2022-07-29T03:29:23.574Z,3.90
2022-07-29T03:29:55.058Z,3.70
2022-07-29T03:30:52.289Z,3.90
2022-07-29T03:31:14.859Z,3.80
2022-07-29T03:33:49.112Z,3.72
2022-07-29T03:34:10.842Z,3.70
2022-07-29T03:34:41.616Z,3.70
2022-07-29T03:35:04.176Z,3.78
2022-07-29T03:35:26.007Z,3.65
2022-07-29T03:35:47.802Z,3.70
2022-07-29T03:36:09.879Z,3.85
2022-07-29T03:36:31.669Z,3.80
2022-07-29T03:36:53.552Z,4.00
2022-07-29T03:37:24.484Z,3.95
2022-07-29T03:37:47.104Z,3.33
2022-07-29T03:38:09.705Z,3.63
2022-07-29T03:38:36.789Z,3.83
2022-07-29T03:38:58.762Z,3.53
2022-07-29T03:39:25.392Z,3.80
2022-07-29T03:39:48.663Z,3.80
2022-07-29T03:40:18.258Z,3.78
2022-07-29T03:41:08.372Z,3.80
2022-07-29T03:41:32.812Z,3.70
2022-07-29T03:41:58.310Z,3.65
2022-07-29T03:42:31.097Z,3.40
2022-07-29T03:42:57.462Z,3.80
2022-07-29T03:43:21.544Z,3.67
2022-07-29T03:43:49.254Z,3.60
2022-07-29T03:44:13.579Z,3.40
2022-07-29T03:44:46.353Z,3.80
2022-07-29T03:45:12.247Z,3.40
2022-07-29T03:45:35.694Z,3.40
2022-07-29T03:45:59.951Z,3.50
2022-07-29T03:46:25.030Z,3.20
2022-07-29T03:46:49.221Z,3.20
2022-07-29T03:47:12.089Z,3.40
2022-07-29T03:47:50.242Z,3.45
2022-07-29T03:48:16.126Z,3.28
2022-07-29T03:48:43.486Z,3.40
2022-07-29T03:49:06.245Z,2.90
2022-07-29T03:49:28.848Z,3.10
2022-07-29T03:49:54.741Z,2.80
2022-07-29T03:50:17.248Z,3.10
2022-07-29T03:50:39.342Z,3.10
2022-07-29T03:51:01.532Z,3.30
2022-07-29T03:51:33.053Z,3.28
2022-07-29T03:51:55.914Z,3.08
2022-07-29T03:52:18.129Z,2.95
2022-07-29T03:52:40.182Z,2.88
2022-07-29T03:53:03.325Z,2.95
2022-07-29T03:53:25.196Z,2.70
2022-07-29T03:53:46.995Z,2.60
2022-07-29T03:54:10.331Z,2.60
2022-07-29T03:54:32.374Z,2.80
2022-07-29T03:54:54.720Z,2.80
2022-07-29T03:55:17.023Z,2.60
2022-07-29T03:55:42.773Z,2.42
2022-07-29T03:56:06.888Z,2.40
2022-07-29T03:56:30.169Z,2.58
2022-07-29T03:56:54.785Z,2.60
2022-07-29T03:57:19.016Z,2.30
2022-07-29T03:57:41.731Z,2.30
2022-07-29T03:58:04.170Z,2.42
2022-07-29T03:58:28.424Z,2.40
2022-07-29T03:58:52.923Z,2.20
2022-07-29T03:59:20.413Z,2.15
2022-07-29T03:59:43.744Z,2.45
2022-07-29T04:00:06.867Z,2.45
2022-07-29T04:00:29.778Z,2.22
2022-07-29T04:00:51.867Z,2.33
2022-07-29T04:01:15.845Z,2.05
2022-07-29T04:01:40.696Z,2.03
2022-07-29T04:02:04.585Z,2.10
2022-07-29T04:02:30.581Z,2.05
2022-07-29T04:02:52.614Z,2.00
2022-07-29T04:03:15.799Z,2.20
2022-07-29T04:03:37.837Z,2.08
2022-07-29T04:04:00.572Z,2.30
2022-07-29T04:04:23.048Z,2.33
2022-07-29T04:04:45.106Z,1.88
2022-07-29T04:05:13.569Z,2.00
2022-07-29T04:05:35.572Z,2.10
2022-07-29T04:06:06.977Z,2.13
2022-07-29T04:06:28.794Z,2.00
2022-07-29T04:06:50.623Z,1.80
2022-07-29T04:07:16.389Z,2.20
2022-07-29T04:07:38.167Z,2.00
2022-07-29T04:08:00.026Z,2.00
2022-07-29T04:08:21.795Z,1.83
2022-07-29T04:08:43.591Z,1.88
2022-07-29T04:09:05.343Z,1.75
2022-07-29T04:09:31.813Z,1.88
2022-07-29T04:09:53.580Z,1.85
2022-07-29T04:10:30.394Z,2.00
2022-07-29T04:10:54.234Z,2.22
2022-07-29T04:11:16.091Z,2.22
2022-07-29T04:12:01.784Z,2.08
2022-07-29T04:12:22.697Z,2.30
2022-07-29T04:12:44.525Z,1.98
2022-07-29T04:13:06.325Z,1.95
2022-07-29T04:13:28.526Z,2.25
2022-07-29T04:13:50.272Z,2.25
2022-07-29T04:14:12.083Z,2.10
2022-07-29T04:14:34.902Z,2.23
2022-07-29T04:14:56.643Z,2.05
2022-07-29T04:15:18.420Z,2.20
2022-07-29T04:15:40.453Z,1.90
2022-07-29T04:16:02.595Z,1.90
2022-07-29T04:16:26.633Z,1.92
2022-07-29T04:16:48.535Z,1.75
2022-07-29T04:17:10.491Z,1.75
2022-07-29T04:17:32.275Z,1.80
2022-07-29T04:17:54.040Z,2.00
2022-07-29T04:18:15.998Z,1.80
2022-07-29T04:18:39.323Z,1.52
2022-07-29T04:19:01.089Z,1.58
2022-07-29T04:19:23.494Z,1.60
2022-07-29T04:19:45.494Z,1.73
2022-07-29T04:20:09.259Z,1.70
2022-07-29T04:20:31.242Z,1.73
2022-07-29T04:20:53.204Z,2.10
2022-07-29T04:21:15.506Z,1.83
2022-07-29T04:21:41.440Z,1.80
2022-07-29T04:22:03.689Z,1.83
2022-07-29T04:22:25.909Z,1.60
2022-07-29T04:22:49.288Z,1.60
2022-07-29T04:23:11.303Z,1.90
2022-07-29T04:23:35.882Z,1.77
2022-07-29T04:24:09.801Z,1.70
2022-07-29T04:24:31.678Z,1.50
2022-07-29T04:24:56.320Z,1.50
2022-07-29T04:25:20.078Z,1.55
2022-07-29T04:25:42.279Z,1.67
2022-07-29T04:26:04.141Z,1.70
2022-07-29T04:26:26.006Z,1.70
2022-07-29T04:26:48.498Z,1.85
2022-07-29T04:27:10.411Z,1.90
2022-07-29T04:27:32.143Z,1.52
2022-07-29T04:28:03.072Z,1.80
2022-07-29T04:28:24.912Z,1.60
2022-07-29T04:28:46.858Z,1.65
2022-07-29T04:29:08.674Z,1.80
2022-07-29T04:29:31.569Z,1.58
2022-07-29T04:29:55.942Z,1.40
2022-07-29T04:30:19.499Z,1.67
2022-07-29T04:30:41.383Z,1.73
2022-07-29T04:31:03.302Z,1.40
2022-07-29T04:31:25.967Z,1.45
2022-07-29T04:31:48.218Z,1.45
2022-07-29T04:32:10.091Z,1.55
2022-07-29T04:32:32.155Z,1.70
2022-07-29T04:32:54.264Z,1.50
2022-07-29T04:33:16.083Z,1.52
2022-07-29T04:33:37.943Z,1.70
2022-07-29T04:33:59.761Z,1.65
2022-07-29T04:34:21.568Z,1.70
2022-07-29T04:34:43.330Z,1.50
2022-07-29T04:35:06.676Z,1.60
2022-07-29T04:35:29.697Z,1.58
2022-07-29T04:35:52.397Z,1.63
2022-07-29T04:36:28.868Z,1.42
2022-07-29T04:36:51.623Z,1.60
2022-07-29T04:37:13.891Z,1.60
2022-07-29T04:37:35.710Z,1.52
2022-07-29T04:37:57.757Z,1.60
2022-07-29T04:38:19.621Z,1.60
2022-07-29T04:38:41.648Z,1.80
2022-07-29T04:39:05.137Z,1.80
2022-07-29T04:39:29.646Z,1.70
2022-07-29T04:39:52.494Z,1.80
2022-07-29T04:40:14.561Z,1.60
2022-07-29T04:40:38.669Z,1.65
2022-07-29T04:41:01.566Z,1.60
2022-07-29T04:41:23.584Z,1.70
2022-07-29T04:41:54.900Z,1.70
2022-07-29T04:42:18.270Z,1.70
2022-07-29T04:42:48.552Z,1.70
2022-07-29T04:43:11.862Z,1.70
2022-07-29T04:43:37.046Z,1.90
2022-07-29T04:43:58.952Z,1.75
2022-07-29T04:44:21.885Z,1.85
2022-07-29T04:44:50.292Z,2.05
2022-07-29T04:45:12.262Z,1.80
2022-07-29T04:45:34.013Z,1.80
2022-07-29T04:45:55.930Z,1.90
2022-07-29T04:46:17.952Z,1.85
2022-07-29T04:46:40.046Z,1.83
2022-07-29T04:47:02.051Z,1.80
2022-07-29T04:47:23.874Z,2.05
2022-07-29T04:47:45.629Z,2.03
2022-07-29T04:48:08.172Z,2.00
2022-07-29T04:48:30.178Z,1.92
2022-07-29T04:48:53.297Z,1.70
2022-07-29T04:49:15.291Z,1.90
2022-07-29T04:49:39.846Z,1.70
2022-07-29T04:50:02.146Z,1.80
2022-07-29T04:50:24.870Z,1.67
2022-07-29T04:50:47.013Z,1.80
2022-07-29T04:51:08.983Z,1.70
2022-07-29T04:51:30.819Z,1.77
2022-07-29T04:51:52.672Z,2.00
2022-07-29T04:52:14.419Z,1.73
2022-07-29T04:52:36.430Z,1.63
2022-07-29T04:52:58.183Z,1.80
2022-07-29T04:53:19.989Z,1.90
2022-07-29T04:53:42.235Z,1.80
2022-07-29T04:54:04.098Z,1.83
2022-07-29T04:54:26.163Z,1.60
2022-07-29T04:54:48.506Z,1.50
2022-07-29T04:55:11.059Z,1.90
2022-07-29T04:55:32.848Z,1.90
2022-07-29T04:55:54.675Z,1.92
2022-07-29T04:56:16.489Z,1.83
2022-07-29T04:56:38.252Z,1.90
2022-07-29T04:57:01.177Z,1.95
2022-07-29T04:57:22.947Z,1.80
2022-07-29T04:57:44.770Z,1.85
2022-07-29T04:58:06.530Z,1.95
2022-07-29T04:58:28.504Z,1.90
2022-07-29T04:58:50.335Z,1.95
2022-07-29T04:59:12.071Z,1.90
2022-07-29T04:59:35.147Z,2.00
2022-07-29T04:59:56.960Z,1.77
2022-07-29T05:00:18.750Z,1.83
2022-07-29T05:00:40.840Z,2.20
2022-07-29T05:01:03.248Z,2.10
2022-07-29T05:01:25.164Z,2.13
2022-07-29T05:01:47.092Z,2.00
2022-07-29T05:02:08.918Z,1.92
2022-07-29T05:02:30.739Z,1.90
2022-07-29T05:02:52.614Z,1.83
2022-07-29T05:03:16.254Z,1.80
2022-07-29T05:03:38.441Z,1.88
2022-07-29T05:04:00.893Z,1.73
2022-07-29T05:04:22.900Z,1.70
2022-07-29T05:04:44.757Z,2.00
2022-07-29T05:05:07.086Z,1.95
2022-07-29T05:05:28.895Z,2.10
2022-07-29T05:05:50.701Z,2.03
2022-07-29T05:06:13.256Z,2.00
2022-07-29T05:06:35.096Z,2.10
2022-07-29T05:06:57.046Z,2.10
2022-07-29T05:07:18.821Z,1.90
2022-07-29T05:07:40.639Z,2.00
2022-07-29T05:08:02.477Z,2.10
2022-07-29T05:08:24.242Z,1.70
2022-07-29T05:08:45.999Z,1.75
2022-07-29T05:09:07.796Z,1.80
2022-07-29T05:09:29.562Z,2.00
2022-07-29T05:09:51.330Z,1.98
2022-07-29T05:10:13.104Z,2.00
2022-07-29T05:10:38.934Z,1.98
2022-07-29T05:11:11.315Z,2.13
2022-07-29T05:11:34.379Z,1.85
2022-07-29T05:11:56.183Z,1.85
2022-07-29T05:12:17.965Z,1.98
2022-07-29T05:12:39.778Z,2.10
2022-07-29T05:13:01.577Z,1.85
2022-07-29T05:13:23.581Z,1.88
2022-07-29T05:13:46.901Z,1.90
2022-07-29T05:14:08.980Z,2.00
2022-07-29T05:14:31.493Z,1.85
2022-07-29T05:14:53.528Z,1.98
2022-07-29T05:15:15.732Z,1.92
2022-07-29T05:15:38.097Z,1.90
2022-07-29T05:16:00.211Z,1.92
2022-07-29T05:16:23.658Z,1.85
2022-07-29T05:16:45.853Z,1.90
2022-07-29T05:17:10.097Z,2.10
2022-07-29T05:17:31.998Z,1.92
2022-07-29T05:17:53.923Z,2.25
2022-07-29T05:18:15.766Z,1.85
2022-07-29T05:18:37.840Z,1.85
2022-07-29T05:18:59.770Z,2.10
2022-07-29T05:19:21.517Z,2.40
2022-07-29T05:19:43.347Z,2.20
2022-07-29T05:20:06.684Z,1.75
2022-07-29T05:20:31.649Z,1.73
2022-07-29T05:20:55.469Z,1.95
2022-07-29T05:21:17.283Z,2.10
2022-07-29T05:21:39.189Z,1.90
2022-07-29T05:22:01.089Z,1.70
2022-07-29T05:22:23.151Z,1.80
2022-07-29T05:22:44.929Z,2.10
2022-07-29T05:23:06.745Z,2.17
2022-07-29T05:23:28.552Z,2.22
2022-07-29T05:23:50.543Z,2.20
2022-07-29T05:24:12.671Z,1.98
2022-07-29T05:24:34.598Z,2.10
2022-07-29T05:24:57.767Z,2.20
2022-07-29T05:25:20.148Z,2.08
2022-07-29T05:25:44.209Z,2.00
2022-07-29T05:26:06.556Z,2.30
2022-07-29T05:26:30.463Z,2.00
2022-07-29T05:26:52.474Z,2.10
2022-07-29T05:27:15.006Z,2.00
2022-07-29T05:27:37.796Z,2.00
2022-07-29T05:27:59.711Z,2.10
2022-07-29T05:28:21.481Z,2.10
2022-07-29T05:28:43.300Z,2.20
2022-07-29T05:29:05.047Z,2.20
2022-07-29T05:29:43.982Z,2.00
2022-07-29T05:30:07.910Z,2.22
2022-07-29T05:30:29.715Z,2.30
2022-07-29T05:30:51.569Z,2.15
2022-07-29T05:31:15.534Z,2.10
2022-07-29T05:31:37.528Z,2.30
2022-07-29T05:31:59.881Z,2.40
2022-07-29T05:32:22.616Z,2.13
2022-07-29T05:32:45.613Z,1.80
2022-07-29T05:33:07.531Z,2.00
2022-07-29T05:33:36.047Z,1.88
2022-07-29T05:33:58.968Z,1.80
2022-07-29T05:34:21.201Z,1.90
2022-07-29T05:34:50.689Z,2.17
2022-07-29T05:35:14.527Z,1.98
2022-07-29T05:35:38.029Z,2.08
2022-07-29T05:36:00.885Z,1.92
2022-07-29T05:36:23.094Z,2.17
2022-07-29T05:36:44.857Z,2.00
2022-07-29T05:37:06.725Z,2.00
2022-07-29T05:37:28.854Z,2.00
2022-07-29T05:37:51.569Z,1.90
2022-07-29T05:38:15.607Z,1.88
2022-07-29T05:38:37.664Z,1.90
2022-07-29T05:38:59.493Z,2.20
2022-07-29T05:39:21.529Z,2.05
2022-07-29T05:39:47.443Z,2.28
2022-07-29T05:40:11.435Z,2.03
2022-07-29T05:40:33.470Z,1.90
2022-07-29T05:40:58.631Z,2.00
2022-07-29T05:41:20.853Z,2.17
2022-07-29T05:41:42.656Z,2.30
2022-07-29T05:42:04.751Z,2.17
2022-07-29T05:42:27.262Z,1.80
2022-07-29T05:42:49.019Z,2.03
2022-07-29T05:43:10.771Z,1.95
2022-07-29T05:43:33.054Z,1.85
2022-07-29T05:43:54.847Z,1.90
2022-07-29T05:44:17.227Z,2.13
2022-07-29T05:44:42.260Z,1.95
2022-07-29T05:45:04.885Z,1.70
2022-07-29T05:45:26.790Z,1.70
2022-07-29T05:45:49.522Z,2.00
2022-07-29T05:46:12.410Z,2.08
2022-07-29T05:46:34.355Z,2.00
2022-07-29T05:46:56.451Z,1.90
2022-07-29T05:47:18.355Z,2.13
2022-07-29T05:47:40.388Z,2.25
2022-07-29T05:48:02.404Z,1.85
2022-07-29T05:48:24.403Z,1.98
2022-07-29T05:48:46.697Z,2.08
2022-07-29T05:49:08.640Z,2.15
2022-07-29T05:49:31.506Z,2.10
2022-07-29T05:49:53.790Z,2.05
2022-07-29T05:50:15.613Z,2.00
2022-07-29T05:50:37.406Z,2.17
2022-07-29T05:51:06.327Z,2.08
2022-07-29T05:51:28.363Z,2.22
2022-07-29T05:51:50.325Z,2.17
2022-07-29T05:52:12.176Z,2.10
2022-07-29T05:52:34.220Z,2.10
2022-07-29T05:52:55.970Z,2.03
2022-07-29T05:53:20.124Z,1.93
2022-07-29T05:53:42.554Z,1.83
2022-07-29T05:54:04.831Z,2.10
2022-07-29T05:54:26.770Z,2.13
2022-07-29T05:54:48.725Z,2.10
2022-07-29T05:55:10.725Z,1.65
2022-07-29T05:55:32.531Z,1.83
2022-07-29T05:55:54.350Z,2.28
2022-07-29T05:56:17.470Z,1.85
2022-07-29T05:56:39.258Z,1.90
2022-07-29T05:57:01.607Z,2.10
2022-07-29T05:58:47.601Z,1.90
2022-07-29T05:59:17.324Z,2.03
2022-07-29T05:59:41.275Z,1.90
2022-07-29T06:00:04.408Z,2.10
2022-07-29T06:00:26.563Z,1.90
2022-07-29T06:00:51.295Z,1.70
2022-07-29T06:01:13.202Z,1.90
2022-07-29T06:01:35.186Z,1.98
2022-07-29T06:01:58.158Z,1.83
2022-07-29T06:02:20.281Z,2.22
2022-07-29T06:02:43.381Z,1.85
2022-07-29T06:03:05.280Z,1.80
2022-07-29T06:03:27.700Z,1.90
2022-07-29T06:03:49.769Z,2.00
2022-07-29T06:04:11.940Z,1.80
2022-07-29T06:04:34.676Z,1.90
2022-07-29T06:04:56.635Z,1.95
2022-07-29T06:05:21.419Z,1.90
2022-07-29T06:05:43.194Z,1.77
2022-07-29T06:06:06.959Z,2.05
2022-07-29T06:06:28.762Z,2.20
2022-07-29T06:06:50.722Z,1.90
2022-07-29T06:07:12.523Z,1.80
2022-07-29T06:07:35.392Z,1.90
2022-07-29T06:07:58.295Z,2.05
2022-07-29T06:08:20.679Z,1.80
2022-07-29T06:08:42.513Z,1.85
2022-07-29T06:09:12.771Z,1.80
2022-07-29T06:09:36.448Z,1.48
2022-07-29T06:09:58.565Z,1.52
2022-07-29T06:10:20.619Z,1.92
2022-07-29T06:10:46.589Z,2.03
2022-07-29T06:11:11.594Z,1.70
2022-07-29T06:11:33.476Z,1.70
2022-07-29T06:11:55.230Z,1.70
2022-07-29T06:12:17.387Z,1.67
2022-07-29T06:12:39.199Z,1.50
2022-07-29T06:13:00.992Z,1.70